Time;durP1;ratioP1;P1;durP2;ratioP2;P2;SDS_P1;SDS_P2;PMS_P1;PMS_P2;Temp;Humidity;BMP_temperature;BMP_pressure;BME280_temperature;BME280_humidity;BME280_pressure;Samples;Min_cycle;Max_cycle;Signal;HPM_P1;HPM_P2
2023/04/10 00:01:55;;;;;;;27.35;16.52;;;;;;;;;;5011411;28;20030;-63
2023/04/10 00:04:20;;;;;;;27.30;15.77;;;;;;;;;;5015639;28;20036;-65
2023/04/10 00:06:47;;;;;;;30.55;16.80;;;;;;;;;;5022194;28;20060;-63
2023/04/10 00:09:13;;;;;;;29.02;16.48;;;;;;;;;;5029426;28;20042;-63
2023/04/10 00:11:38;;;;;;;27.45;17.13;;;;;;;;;;5031538;28;20037;-63
2023/04/10 00:14:03;;;;;;;30.30;17.67;;;;;;;;;;5019884;28;20121;-62
2023/04/10 00:16:29;;;;;;;30.40;18.00;;;;;;;;;;5018372;28;20410;-63
2023/04/10 00:18:54;;;;;;;29.10;17.83;;;;;;;;;;5018426;28;20037;-63
2023/04/10 00:21:20;;;;;;;30.35;17.70;;;;;;;;;;5016741;28;20033;-62
2023/04/10 00:23:45;;;;;;;32.03;18.48;;;;;;;;;;5034403;28;20033;-63
2023/04/10 00:26:11;;;;;;;35.70;19.33;;;;;;;;;;5033975;28;20037;-63
2023/04/10 00:28:37;;;;;;;32.20;19.20;;;;;;;;;;5032516;28;20033;-63
2023/04/10 00:31:05;;;;;;;32.88;18.70;;;;;;;;;;5020494;28;20108;-63
2023/04/10 00:33:31;;;;;;;36.85;19.90;;;;;;;;;;5027058;28;20043;-63
2023/04/10 00:35:56;;;;;;;35.65;20.13;;;;;;;;;;5026790;28;20045;-63
2023/04/10 00:38:21;;;;;;;35.30;20.35;;;;;;;;;;5032653;28;20034;-63
2023/04/10 00:40:47;;;;;;;38.08;21.73;;;;;;;;;;5034081;28;20128;-64
2023/04/10 00:43:12;;;;;;;40.67;21.80;;;;;;;;;;5034950;28;20037;-61
2023/04/10 00:45:39;;;;;;;38.80;21.17;;;;;;;;;;5033339;28;20033;-64
2023/04/10 00:48:05;;;;;;;38.53;21.20;;;;;;;;;;5025686;28;20048;-63
2023/04/10 00:50:30;;;;;;;38.08;21.35;;;;;;;;;;5021169;28;20048;-62
2023/04/10 00:52:57;;;;;;;38.25;21.92;;;;;;;;;;5016854;28;20038;-63
2023/04/10 00:55:23;;;;;;;37.65;21.17;;;;;;;;;;5019009;28;20037;-63
2023/04/10 00:57:49;;;;;;;36.03;21.30;;;;;;;;;;5032024;28;20025;-63
2023/04/10 01:00:16;;;;;;;41.55;22.35;;;;;;;;;;5028866;28;20033;-62
2023/04/10 01:02:41;;;;;;;38.63;22.15;;;;;;;;;;5014067;28;20030;-63
2023/04/10 01:05:11;;;;;;;39.38;21.63;;;;;;;;;;5023282;28;20052;-62
2023/04/10 01:08:06;;;;;;;36.75;20.60;;;;;;;;;;5033268;28;20064;-63
2023/04/10 01:10:53;;;;;;;40.83;21.95;;;;;;;;;;5019474;28;20044;-63
2023/04/10 01:13:26;;;;;;;42.50;21.23;;;;;;;;;;5013786;28;20030;-60
2023/04/10 01:16:04;;;;;;;38.50;22.08;;;;;;;;;;5013528;28;20048;-63
2023/04/10 01:18:54;;;;;;;35.55;20.70;;;;;;;;;;5015907;28;20076;-60
2023/04/10 01:21:21;;;;;;;38.00;21.42;;;;;;;;;;5032161;28;20057;-60
2023/04/10 01:24:17;;;;;;;35.53;20.90;;;;;;;;;;5032902;28;20025;-63
2023/04/10 01:27:04;;;;;;;41.50;22.05;;;;;;;;;;5032972;28;20037;-61
2023/04/10 01:29:33;;;;;;;35.83;20.85;;;;;;;;;;5017563;28;20040;-62
2023/04/10 01:32:07;;;;;;;37.72;20.90;;;;;;;;;;5017284;28;20037;-61
2023/04/10 01:34:45;;;;;;;37.08;21.73;;;;;;;;;;5018348;28;20034;-61
2023/04/10 01:37:39;;;;;;;42.35;21.60;;;;;;;;;;5014839;28;20042;-61
2023/04/10 01:40:09;;;;;;;39.25;22.23;;;;;;;;;;5013280;28;20114;-61
2023/04/10 01:42:44;;;;;;;37.05;21.75;;;;;;;;;;5025217;28;20179;-61
2023/04/10 01:45:17;;;;;;;38.88;22.20;;;;;;;;;;5013267;28;20068;-61
2023/04/10 01:47:42;;;;;;;39.05;21.63;;;;;;;;;;5026588;28;20029;-61
2023/04/10 01:50:09;;;;;;;36.40;21.63;;;;;;;;;;5023505;28;20037;-61
2023/04/10 01:52:36;;;;;;;34.72;20.75;;;;;;;;;;5025976;28;20037;-61
2023/04/10 01:55:02;;;;;;;36.88;21.25;;;;;;;;;;5015247;28;20729;-62
2023/04/10 01:57:30;;;;;;;33.70;20.38;;;;;;;;;;5014398;28;20097;-62
2023/04/10 01:59:56;;;;;;;33.45;19.52;;;;;;;;;;5011627;28;20113;-61
2023/04/10 02:02:21;;;;;;;33.65;20.50;;;;;;;;;;5013086;28;20552;-63
2023/04/10 02:04:50;;;;;;;33.85;19.77;;;;;;;;;;5027555;28;20021;-65
2023/04/10 02:07:27;;;;;;;33.10;19.27;;;;;;;;;;5032591;28;20495;-62
2023/04/10 02:10:29;;;;;;;33.55;20.02;;;;;;;;;;5015832;28;20034;-60
2023/04/10 02:13:00;;;;;;;33.47;18.90;;;;;;;;;;5027202;28;20056;-62
2023/04/10 02:15:28;;;;;;;31.10;18.63;;;;;;;;;;5023095;28;20040;-62
2023/04/10 02:17:55;;;;;;;32.67;18.92;;;;;;;;;;5012570;28;20052;-62
2023/04/10 02:20:22;;;;;;;32.50;19.15;;;;;;;;;;5012149;28;20029;-62
2023/04/10 02:22:48;;;;;;;31.05;18.15;;;;;;;;;;5025285;28;20038;-63
2023/04/10 02:25:15;;;;;;;32.78;18.98;;;;;;;;;;5025891;28;20391;-62
2023/04/10 02:27:40;;;;;;;30.83;18.50;;;;;;;;;;5014927;28;20059;-63
2023/04/10 02:30:06;;;;;;;31.65;18.40;;;;;;;;;;5030677;28;20096;-63
2023/04/10 02:32:32;;;;;;;31.23;17.98;;;;;;;;;;5027378;28;20040;-63
2023/04/10 02:34:58;;;;;;;29.60;17.60;;;;;;;;;;5031764;28;20438;-62
2023/04/10 02:37:24;;;;;;;31.48;17.88;;;;;;;;;;5031019;28;20067;-61
2023/04/10 02:39:50;;;;;;;30.13;17.40;;;;;;;;;;5031735;28;20357;-61
2023/04/10 02:42:15;;;;;;;29.00;17.13;;;;;;;;;;5032767;28;20037;-62
2023/04/10 02:44:41;;;;;;;31.38;17.52;;;;;;;;;;5028855;28;20120;-63
2023/04/10 02:47:06;;;;;;;29.27;17.50;;;;;;;;;;5032258;28;20456;-63
2023/04/10 02:49:33;;;;;;;30.05;17.55;;;;;;;;;;5029261;28;20442;-60
2023/04/10 02:51:59;;;;;;;31.05;18.15;;;;;;;;;;5027437;28;20030;-63
2023/04/10 02:54:25;;;;;;;30.60;17.90;;;;;;;;;;5027906;28;20056;-60
2023/04/10 02:56:50;;;;;;;30.38;17.98;;;;;;;;;;5028231;28;20038;-63
2023/04/10 02:59:16;;;;;;;30.30;18.25;;;;;;;;;;5011576;28;20034;-62
2023/04/10 03:01:42;;;;;;;29.05;17.50;;;;;;;;;;5027682;28;20044;-63
2023/04/10 03:04:07;;;;;;;29.33;16.67;;;;;;;;;;5021596;28;20125;-63
2023/04/10 03:06:32;;;;;;;30.30;17.48;;;;;;;;;;5021548;28;20030;-63
2023/04/10 03:08:58;;;;;;;29.23;17.63;;;;;;;;;;5019111;28;20030;-62
2023/04/10 03:11:23;;;;;;;29.13;16.95;;;;;;;;;;5011689;28;20034;-62
2023/04/10 03:13:49;;;;;;;29.50;17.00;;;;;;;;;;5020732;28;20416;-63
2023/04/10 03:16:16;;;;;;;30.75;17.15;;;;;;;;;;5026890;28;20140;-61
2023/04/10 03:18:41;;;;;;;28.40;16.27;;;;;;;;;;5022952;28;20033;-63
2023/04/10 03:21:07;;;;;;;27.48;16.38;;;;;;;;;;5031424;28;20022;-62
2023/04/10 03:23:32;;;;;;;30.63;16.27;;;;;;;;;;5020946;28;20036;-63
2023/04/10 03:25:58;;;;;;;27.08;15.88;;;;;;;;;;5020636;28;20116;-62
2023/04/10 03:28:23;;;;;;;26.05;15.57;;;;;;;;;;5022067;28;20068;-62
2023/04/10 03:30:49;;;;;;;27.13;16.08;;;;;;;;;;5017876;28;20030;-63
2023/04/10 03:33:15;;;;;;;26.88;15.88;;;;;;;;;;5016112;28;20033;-61
2023/04/10 03:35:40;;;;;;;28.77;16.30;;;;;;;;;;5018803;28;20045;-60
2023/04/10 03:38:06;;;;;;;28.52;15.30;;;;;;;;;;5011382;28;20076;-61
2023/04/10 03:40:33;;;;;;;29.70;16.40;;;;;;;;;;5012467;28;20038;-60
2023/04/10 03:42:59;;;;;;;28.50;16.13;;;;;;;;;;5012112;28;20029;-61
2023/04/10 03:45:24;;;;;;;27.00;15.57;;;;;;;;;;5011781;28;20034;-60
2023/04/10 03:47:51;;;;;;;29.10;15.18;;;;;;;;;;5010613;28;20044;-61
2023/04/10 03:50:16;;;;;;;29.33;15.23;;;;;;;;;;5014877;28;20038;-63
2023/04/10 03:52:41;;;;;;;26.10;14.95;;;;;;;;;;5028113;28;20431;-62
2023/04/10 03:55:07;;;;;;;24.58;14.43;;;;;;;;;;5031385;28;20368;-62
2023/04/10 03:57:32;;;;;;;25.30;14.43;;;;;;;;;;5028961;28;20061;-62
2023/04/10 03:59:58;;;;;;;24.15;14.40;;;;;;;;;;5028535;28;20124;-62
2023/04/10 04:02:23;;;;;;;26.52;14.80;;;;;;;;;;5012173;28;20456;-63
2023/04/10 04:04:49;;;;;;;25.13;14.23;;;;;;;;;;5018047;28;20026;-63
2023/04/10 04:07:14;;;;;;;25.35;14.55;;;;;;;;;;5015062;28;20030;-63
2023/04/10 04:09:42;;;;;;;28.13;15.75;;;;;;;;;;5028662;28;20052;-63
2023/04/10 04:12:08;;;;;;;24.83;14.55;;;;;;;;;;5015964;28;20061;-63
2023/04/10 04:14:33;;;;;;;27.80;14.35;;;;;;;;;;5012369;28;20116;-62
2023/04/10 04:16:58;;;;;;;26.15;14.48;;;;;;;;;;5012348;28;20085;-62
2023/04/10 04:19:24;;;;;;;30.27;14.63;;;;;;;;;;5012658;28;20034;-62
2023/04/10 04:21:50;;;;;;;23.08;13.43;;;;;;;;;;5026951;28;20052;-62
2023/04/10 04:24:15;;;;;;;24.60;13.50;;;;;;;;;;5011825;28;20042;-62
2023/04/10 04:26:41;;;;;;;23.98;14.18;;;;;;;;;;5022785;28;20056;-62
2023/04/10 04:29:06;;;;;;;22.90;12.85;;;;;;;;;;5011879;28;20125;-62
2023/04/10 04:31:31;;;;;;;24.48;13.32;;;;;;;;;;5010319;28;20026;-61
2023/04/10 04:33:58;;;;;;;25.15;13.05;;;;;;;;;;5041229;28;20095;-61
2023/04/10 04:36:23;;;;;;;25.90;13.32;;;;;;;;;;5025499;28;20045;-63
2023/04/10 04:38:48;;;;;;;22.85;13.02;;;;;;;;;;5029648;28;20033;-63
2023/04/10 04:41:14;;;;;;;21.63;12.73;;;;;;;;;;5031348;28;20071;-63
2023/04/10 04:43:40;;;;;;;20.80;12.20;;;;;;;;;;5020972;28;20734;-63
2023/04/10 04:46:05;;;;;;;21.60;12.40;;;;;;;;;;5011662;28;20073;-62
2023/04/10 04:48:31;;;;;;;21.02;11.95;;;;;;;;;;5010605;28;20038;-60
2023/04/10 04:50:56;;;;;;;20.35;11.60;;;;;;;;;;5011872;28;20525;-62
2023/04/10 04:53:22;;;;;;;24.27;13.10;;;;;;;;;;5013927;28;20025;-63
2023/04/10 04:55:47;;;;;;;21.00;12.30;;;;;;;;;;5021227;28;20041;-63
2023/04/10 04:58:12;;;;;;;24.25;13.38;;;;;;;;;;5010770;28;20096;-62
2023/04/10 05:00:38;;;;;;;23.13;12.93;;;;;;;;;;5017454;28;20034;-62
2023/04/10 05:03:05;;;;;;;26.67;13.82;;;;;;;;;;5032473;28;20057;-63
2023/04/10 05:05:30;;;;;;;23.38;13.75;;;;;;;;;;5027985;28;20116;-61
2023/04/10 05:07:55;;;;;;;24.75;13.43;;;;;;;;;;5013939;28;20463;-63
2023/04/10 05:10:21;;;;;;;24.88;13.93;;;;;;;;;;5014064;28;20037;-62
2023/04/10 05:12:46;;;;;;;23.80;13.93;;;;;;;;;;5026634;28;20033;-63
2023/04/10 05:15:12;;;;;;;26.10;14.50;;;;;;;;;;5015988;28;20034;-60
2023/04/10 05:17:37;;;;;;;23.70;13.45;;;;;;;;;;5027284;28;20029;-62
2023/04/10 05:20:03;;;;;;;26.20;13.60;;;;;;;;;;5032545;28;20452;-63
2023/04/10 05:22:29;;;;;;;22.95;13.88;;;;;;;;;;5029923;28;20029;-61
2023/04/10 05:24:55;;;;;;;23.83;14.50;;;;;;;;;;5037634;28;20455;-62
2023/04/10 05:27:20;;;;;;;24.92;14.63;;;;;;;;;;5032663;28;20047;-62
2023/04/10 05:29:46;;;;;;;24.33;14.40;;;;;;;;;;5031884;28;20487;-62
2023/04/10 05:32:12;;;;;;;27.15;15.50;;;;;;;;;;5024766;28;20036;-62
2023/04/10 05:34:38;;;;;;;26.58;16.00;;;;;;;;;;5033127;28;20064;-62
2023/04/10 05:37:03;;;;;;;29.25;16.70;;;;;;;;;;5033220;28;20076;-62
2023/04/10 05:39:29;;;;;;;27.73;16.60;;;;;;;;;;5017041;28;20391;-63
2023/04/10 05:41:55;;;;;;;31.17;17.67;;;;;;;;;;5018025;28;20033;-62
2023/04/10 05:44:21;;;;;;;31.42;18.55;;;;;;;;;;5034363;28;20029;-64
2023/04/10 05:46:46;;;;;;;30.15;17.77;;;;;;;;;;5032285;28;20095;-62
2023/04/10 05:49:11;;;;;;;34.58;18.48;;;;;;;;;;5034069;28;20033;-62
2023/04/10 05:51:37;;;;;;;31.48;18.27;;;;;;;;;;5030985;28;20103;-62
2023/04/10 05:54:03;;;;;;;32.92;18.58;;;;;;;;;;5034151;28;20057;-63
2023/04/10 05:56:28;;;;;;;36.85;20.05;;;;;;;;;;5031871;28;20025;-62
2023/04/10 05:58:53;;;;;;;33.05;19.13;;;;;;;;;;5020060;28;20033;-62
2023/04/10 06:01:19;;;;;;;34.58;20.50;;;;;;;;;;5033121;28;20029;-60
2023/04/10 06:03:44;;;;;;;36.25;20.33;;;;;;;;;;5012827;28;20113;-61
2023/04/10 06:06:10;;;;;;;37.45;20.45;;;;;;;;;;5027200;28;20041;-61
2023/04/10 06:08:35;;;;;;;36.72;20.52;;;;;;;;;;5032881;28;20380;-61
2023/04/10 06:11:01;;;;;;;34.97;20.42;;;;;;;;;;5030979;28;20052;-61
2023/04/10 06:13:26;;;;;;;39.67;20.55;;;;;;;;;;5030584;28;20092;-63
2023/04/10 06:15:52;;;;;;;35.60;20.88;;;;;;;;;;5031141;28;20088;-61
2023/04/10 06:18:17;;;;;;;36.50;20.65;;;;;;;;;;5033461;28;20032;-64
2023/04/10 06:20:43;;;;;;;34.88;20.83;;;;;;;;;;5031727;28;20057;-63
2023/04/10 06:23:08;;;;;;;33.55;19.88;;;;;;;;;;5033233;28;20096;-63
2023/04/10 06:25:33;;;;;;;37.10;20.30;;;;;;;;;;5033537;28;20029;-62
2023/04/10 06:27:59;;;;;;;32.42;19.52;;;;;;;;;;5033177;28;20117;-64
2023/04/10 06:30:25;;;;;;;31.90;18.55;;;;;;;;;;5032407;28;20025;-63
2023/04/10 06:32:50;;;;;;;33.75;19.45;;;;;;;;;;5031436;28;20195;-65
2023/04/10 06:35:15;;;;;;;34.08;18.83;;;;;;;;;;5015595;28;20053;-65
2023/04/10 06:37:42;;;;;;;32.53;18.15;;;;;;;;;;5037302;28;20021;-65
2023/04/10 06:40:10;;;;;;;30.52;17.50;;;;;;;;;;5033153;28;20072;-63
2023/04/10 06:42:36;;;;;;;28.33;16.73;;;;;;;;;;5031245;28;20033;-67
2023/04/10 06:45:03;;;;;;;27.50;16.52;;;;;;;;;;5028457;28;20378;-63
2023/04/10 06:47:29;;;;;;;26.88;16.40;;;;;;;;;;5019073;28;20042;-65
2023/04/10 06:49:54;;;;;;;26.05;15.95;;;;;;;;;;5039271;28;20656;-65
2023/04/10 06:52:20;;;;;;;30.60;16.50;;;;;;;;;;5031413;28;20495;-63
2023/04/10 06:54:45;;;;;;;24.27;15.05;;;;;;;;;;5030920;28;20411;-65
2023/04/10 06:57:11;;;;;;;25.48;14.60;;;;;;;;;;5028056;28;20387;-66
2023/04/10 06:59:36;;;;;;;22.55;14.00;;;;;;;;;;5033447;28;20033;-68
2023/04/10 07:02:02;;;;;;;22.88;13.35;;;;;;;;;;5019533;28;20026;-69
2023/04/10 07:04:28;;;;;;;18.48;11.55;;;;;;;;;;5012704;28;20125;-66
2023/04/10 07:06:53;;;;;;;17.73;10.20;;;;;;;;;;5018824;28;20447;-67
2023/04/10 07:09:19;;;;;;;16.55;10.40;;;;;;;;;;5032812;28;20032;-65
2023/04/10 07:11:44;;;;;;;18.05;10.55;;;;;;;;;;5030566;28;20434;-66
2023/04/10 07:14:10;;;;;;;14.75;9.52;;;;;;;;;;5032855;28;20099;-65
2023/04/10 07:16:36;;;;;;;14.48;8.57;;;;;;;;;;5031659;28;20032;-64
2023/04/10 07:19:01;;;;;;;12.75;7.50;;;;;;;;;;5031433;28;20494;-66
2023/04/10 07:21:27;;;;;;;17.52;7.55;;;;;;;;;;5029920;28;20026;-65
2023/04/10 07:23:52;;;;;;;10.25;6.47;;;;;;;;;;5024672;28;20034;-67
2023/04/10 07:26:18;;;;;;;9.57;6.07;;;;;;;;;;5031508;28;20034;-67
2023/04/10 07:28:43;;;;;;;9.25;5.95;;;;;;;;;;5028581;28;20037;-65
2023/04/10 07:31:10;;;;;;;8.65;5.72;;;;;;;;;;5048810;28;20033;-66
2023/04/10 07:33:36;;;;;;;9.27;5.78;;;;;;;;;;5036764;28;20467;-67
2023/04/10 07:36:04;;;;;;;8.45;5.47;;;;;;;;;;5050599;28;20385;-65
2023/04/10 07:38:30;;;;;;;8.90;5.53;;;;;;;;;;5030240;28;20124;-65
2023/04/10 07:40:56;;;;;;;7.60;5.15;;;;;;;;;;5030380;28;20420;-64
2023/04/10 07:43:22;;;;;;;7.63;5.20;;;;;;;;;;5024186;28;20033;-64
2023/04/10 07:45:47;;;;;;;8.43;5.00;;;;;;;;;;5017214;28;20044;-64
2023/04/10 07:48:13;;;;;;;8.80;5.53;;;;;;;;;;5011812;28;20084;-64
2023/04/10 07:50:38;;;;;;;7.18;5.00;;;;;;;;;;5011784;28;20026;-65
2023/04/10 07:53:06;;;;;;;7.97;4.75;;;;;;;;;;5017788;28;20072;-64
2023/04/10 07:55:37;;;;;;;6.93;4.40;;;;;;;;;;5030764;28;20069;-65
2023/04/10 07:58:02;;;;;;;7.22;4.68;;;;;;;;;;5031418;28;20893;-65
2023/04/10 08:00:27;;;;;;;7.00;4.47;;;;;;;;;;5039589;28;20480;-67
2023/04/10 08:02:53;;;;;;;7.57;4.13;;;;;;;;;;5030083;28;20071;-67
2023/04/10 08:05:18;;;;;;;6.78;4.22;;;;;;;;;;5031565;28;20034;-65
2023/04/10 08:07:44;;;;;;;6.50;4.40;;;;;;;;;;5030021;28;20092;-64
2023/04/10 08:10:10;;;;;;;6.45;4.47;;;;;;;;;;5030692;28;20399;-65
2023/04/10 08:12:35;;;;;;;6.32;4.10;;;;;;;;;;5030148;28;20542;-65
2023/04/10 08:15:01;;;;;;;6.13;4.07;;;;;;;;;;5028944;28;20575;-64
2023/04/10 08:17:26;;;;;;;6.18;4.00;;;;;;;;;;5026411;28;20033;-64
2023/04/10 08:19:51;;;;;;;5.70;3.78;;;;;;;;;;5028663;28;20022;-64
2023/04/10 08:22:17;;;;;;;6.28;3.95;;;;;;;;;;5028807;28;20041;-68
2023/04/10 08:24:42;;;;;;;5.82;4.00;;;;;;;;;;5013159;28;20030;-64
2023/04/10 08:27:08;;;;;;;6.93;4.20;;;;;;;;;;5021666;28;20025;-65
2023/04/10 08:29:33;;;;;;;5.82;3.80;;;;;;;;;;5029789;28;20395;-66
2023/04/10 08:31:59;;;;;;;5.85;4.15;;;;;;;;;;5027657;28;20097;-64
2023/04/10 08:34:25;;;;;;;6.18;3.83;;;;;;;;;;5013475;28;20483;-65
2023/04/10 08:36:51;;;;;;;5.47;3.72;;;;;;;;;;5030702;28;20033;-63
2023/04/10 08:39:17;;;;;;;6.10;3.95;;;;;;;;;;5032987;28;20028;-64
2023/04/10 08:41:42;;;;;;;6.85;3.92;;;;;;;;;;5033861;28;20037;-64
2023/04/10 08:44:08;;;;;;;5.97;3.67;;;;;;;;;;5018782;28;20032;-65
2023/04/10 08:46:35;;;;;;;5.10;3.20;;;;;;;;;;5044636;28;20029;-65
2023/04/10 08:49:02;;;;;;;5.18;3.40;;;;;;;;;;5026854;28;20033;-66
2023/04/10 08:51:48;;;;;;;5.50;3.55;;;;;;;;;;5044033;28;20029;-67
2023/04/10 08:54:19;;;;;;;5.15;3.38;;;;;;;;;;5027628;28;20034;-64
2023/04/10 08:56:50;;;;;;;7.57;3.63;;;;;;;;;;5033340;28;20037;-63
2023/04/10 08:59:16;;;;;;;5.28;3.50;;;;;;;;;;5027776;28;20451;-65
2023/04/10 09:01:41;;;;;;;5.15;3.38;;;;;;;;;;5031869;28;20029;-66
2023/04/10 09:04:07;;;;;;;5.55;3.40;;;;;;;;;;5021469;28;20036;-65
2023/04/10 09:06:32;;;;;;;5.20;3.55;;;;;;;;;;5033718;28;20044;-66
2023/04/10 09:08:58;;;;;;;7.00;3.67;;;;;;;;;;5031453;28;20029;-65
2023/04/10 09:11:55;;;;;;;5.35;3.40;;;;;;;;;;5034462;28;20025;-65
2023/04/10 09:14:26;;;;;;;4.82;3.50;;;;;;;;;;5034788;28;20120;-66
2023/04/10 09:16:53;;;;;;;6.28;3.55;;;;;;;;;;5032208;28;20372;-66
2023/04/10 09:19:29;;;;;;;4.93;3.45;;;;;;;;;;5015423;28;20484;-66
2023/04/10 09:21:55;;;;;;;5.38;3.15;;;;;;;;;;5027504;28;20065;-65
2023/04/10 09:24:22;;;;;;;4.70;3.20;;;;;;;;;;5018286;28;20065;-66
2023/04/10 09:26:47;;;;;;;4.38;3.20;;;;;;;;;;5030839;28;20037;-64
2023/04/10 09:29:15;;;;;;;5.22;3.10;;;;;;;;;;5029783;28;20442;-65
2023/04/10 09:31:42;;;;;;;4.25;3.20;;;;;;;;;;5013929;28;20030;-65
2023/04/10 09:34:16;;;;;;;4.70;3.03;;;;;;;;;;5013263;28;20183;-64
2023/04/10 09:36:44;;;;;;;5.88;2.78;;;;;;;;;;5013946;28;20049;-65
2023/04/10 09:39:11;;;;;;;4.95;2.90;;;;;;;;;;5029148;28;20037;-64
2023/04/10 09:41:56;;;;;;;4.18;3.00;;;;;;;;;;5034933;28;20038;-65
2023/04/10 09:44:32;;;;;;;3.95;2.88;;;;;;;;;;5032690;28;20033;-66
2023/04/10 09:47:13;;;;;;;4.57;2.92;;;;;;;;;;5030862;28;20422;-65
2023/04/10 09:49:47;;;;;;;5.32;3.03;;;;;;;;;;5032003;28;20033;-64
2023/04/10 09:52:26;;;;;;;3.92;2.60;;;;;;;;;;5033412;28;20116;-64
2023/04/10 09:54:53;;;;;;;3.85;2.50;;;;;;;;;;5032639;28;20033;-64
2023/04/10 09:57:20;;;;;;;4.13;2.63;;;;;;;;;;5032728;28;20039;-64
2023/04/10 09:59:54;;;;;;;4.15;2.67;;;;;;;;;;5040732;28;20030;-65
2023/04/10 10:02:22;;;;;;;4.00;2.80;;;;;;;;;;5045353;28;20038;-63
2023/04/10 10:04:48;;;;;;;5.90;3.10;;;;;;;;;;5019816;28;20083;-63
2023/04/10 10:07:23;;;;;;;4.38;2.85;;;;;;;;;;5022707;28;20133;-64
2023/04/10 10:09:52;;;;;;;4.03;2.67;;;;;;;;;;5016352;28;20033;-66
2023/04/10 10:12:30;;;;;;;5.53;2.80;;;;;;;;;;5033730;28;20064;-65
2023/04/10 10:15:01;;;;;;;4.38;2.67;;;;;;;;;;5029184;28;20041;-66
2023/04/10 10:17:33;;;;;;;4.45;2.90;;;;;;;;;;5031285;28;20041;-66
2023/04/10 10:20:06;;;;;;;4.25;2.70;;;;;;;;;;5032130;28;20080;-66
2023/04/10 10:22:33;;;;;;;4.85;2.90;;;;;;;;;;5025600;28;20120;-64
2023/04/10 10:24:59;;;;;;;5.65;2.70;;;;;;;;;;5024118;28;20040;-65
2023/04/10 10:27:26;;;;;;;4.63;2.97;;;;;;;;;;5031363;28;20044;-67
2023/04/10 10:29:53;;;;;;;3.80;2.40;;;;;;;;;;5031434;28;20037;-64
2023/04/10 10:32:21;;;;;;;6.55;2.90;;;;;;;;;;5031034;28;20037;-65
2023/04/10 10:34:47;;;;;;;4.20;2.95;;;;;;;;;;5025035;28;20042;-66
2023/04/10 10:37:12;;;;;;;4.07;2.83;;;;;;;;;;5042239;28;20083;-66
2023/04/10 10:39:46;;;;;;;4.20;2.90;;;;;;;;;;5043343;28;20026;-65
2023/04/10 10:42:40;;;;;;;4.07;3.00;;;;;;;;;;5030780;28;20816;-65
2023/04/10 10:45:12;;;;;;;5.07;3.00;;;;;;;;;;5029982;28;20041;-65
2023/04/10 10:48:06;;;;;;;4.20;3.00;;;;;;;;;;5031295;28;20025;-66
2023/04/10 10:50:55;;;;;;;4.18;2.90;;;;;;;;;;5008689;28;20132;-65
2023/04/10 10:53:42;;;;;;;4.00;2.60;;;;;;;;;;5030050;28;20112;-65
2023/04/10 10:56:34;;;;;;;4.35;2.85;;;;;;;;;;5031855;28;20652;-65
2023/04/10 10:59:00;;;;;;;3.90;2.65;;;;;;;;;;5025727;28;20470;-64
2023/04/10 11:01:26;;;;;;;4.60;2.92;;;;;;;;;;5030954;28;20392;-65
2023/04/10 11:03:51;;;;;;;5.32;2.70;;;;;;;;;;5014616;28;20033;-64
2023/04/10 11:06:41;;;;;;;4.25;3.05;;;;;;;;;;5031724;28;20033;-64
2023/04/10 11:09:06;;;;;;;4.43;2.90;;;;;;;;;;5030550;28;20087;-64
2023/04/10 11:12:00;;;;;;;4.45;3.00;;;;;;;;;;5027207;28;20029;-65
2023/04/10 11:14:27;;;;;;;4.22;2.90;;;;;;;;;;5032026;28;20033;-64
2023/04/10 11:16:53;;;;;;;6.00;3.20;;;;;;;;;;5013618;28;20056;-63
2023/04/10 11:19:20;;;;;;;4.20;3.00;;;;;;;;;;5013656;28;20467;-64
2023/04/10 11:22:07;;;;;;;4.35;2.83;;;;;;;;;;5028995;28;20025;-64
2023/04/10 11:25:00;;;;;;;4.55;2.90;;;;;;;;;;5031946;28;20056;-64
2023/04/10 11:27:50;;;;;;;4.57;2.90;;;;;;;;;;5030760;28;20124;-65
2023/04/10 11:30:35;;;;;;;4.78;2.60;;;;;;;;;;5028386;28;20033;-63
2023/04/10 11:33:02;;;;;;;4.10;2.97;;;;;;;;;;5011480;28;20030;-64
2023/04/10 11:35:30;;;;;;;4.65;2.90;;;;;;;;;;5012318;28;20567;-64
2023/04/10 11:38:09;;;;;;;4.72;2.70;;;;;;;;;;5030001;28;20036;-63
2023/04/10 11:40:35;;;;;;;3.90;2.85;;;;;;;;;;5030205;28;20045;-63
2023/04/10 11:43:13;;;;;;;3.90;2.80;;;;;;;;;;5031260;28;20522;-63
2023/04/10 11:45:39;;;;;;;4.13;2.65;;;;;;;;;;5029885;28;20108;-64
2023/04/10 11:48:04;;;;;;;5.63;3.13;;;;;;;;;;5031166;28;20075;-63
2023/04/10 11:50:34;;;;;;;4.05;2.80;;;;;;;;;;5027812;28;20380;-65
2023/04/10 11:53:00;;;;;;;4.80;3.20;;;;;;;;;;5019080;28;20522;-65
2023/04/10 11:55:37;;;;;;;4.35;2.97;;;;;;;;;;5028551;28;20034;-64
2023/04/10 11:58:02;;;;;;;4.30;2.85;;;;;;;;;;5011323;28;20109;-63
2023/04/10 12:00:28;;;;;;;4.38;3.03;;;;;;;;;;5014636;28;20108;-64
2023/04/10 12:02:53;;;;;;;4.18;2.97;;;;;;;;;;5030224;28;20482;-63
2023/04/10 12:05:18;;;;;;;4.05;2.90;;;;;;;;;;5027782;28;20544;-63
2023/04/10 12:07:44;;;;;;;5.38;2.80;;;;;;;;;;5031881;28;20034;-64
2023/04/10 12:10:09;;;;;;;3.53;2.75;;;;;;;;;;5029960;28;20095;-64
2023/04/10 12:12:36;;;;;;;4.93;3.03;;;;;;;;;;5034367;28;20112;-64
2023/04/10 12:15:02;;;;;;;4.07;2.90;;;;;;;;;;5023796;28;20463;-63
2023/04/10 12:17:27;;;;;;;4.00;2.67;;;;;;;;;;5037235;28;20498;-64
2023/04/10 12:19:53;;;;;;;4.05;2.80;;;;;;;;;;5016180;28;20041;-63
2023/04/10 12:22:19;;;;;;;3.45;2.60;;;;;;;;;;5014758;28;20041;-63
2023/04/10 12:24:46;;;;;;;4.30;2.75;;;;;;;;;;5015777;28;20045;-63
2023/04/10 12:27:26;;;;;;;4.38;3.00;;;;;;;;;;5018192;28;20068;-64
2023/04/10 12:29:54;;;;;;;5.03;2.70;;;;;;;;;;5041986;28;20029;-63
2023/04/10 12:32:20;;;;;;;3.83;2.70;;;;;;;;;;5029461;28;20034;-63
2023/04/10 12:34:50;;;;;;;3.65;2.80;;;;;;;;;;5015255;28;20070;-64
2023/04/10 12:37:15;;;;;;;4.82;2.80;;;;;;;;;;5017238;28;20112;-63
2023/04/10 12:39:41;;;;;;;3.63;2.50;;;;;;;;;;5035223;28;20165;-64
2023/04/10 12:42:25;;;;;;;4.15;2.80;;;;;;;;;;5033391;28;20032;-64
2023/04/10 12:44:54;;;;;;;4.18;2.50;;;;;;;;;;5034376;28;20116;-64
2023/04/10 12:47:19;;;;;;;4.13;2.80;;;;;;;;;;5034221;28;20056;-64
2023/04/10 12:50:06;;;;;;;6.15;2.80;;;;;;;;;;5028950;28;20038;-65
2023/04/10 12:52:33;;;;;;;5.25;2.42;;;;;;;;;;5016134;28;20095;-65
2023/04/10 12:55:18;;;;;;;3.22;2.47;;;;;;;;;;5033718;28;20029;-64
2023/04/10 12:57:45;;;;;;;3.90;2.70;;;;;;;;;;5029612;28;20336;-64
2023/04/10 13:00:13;;;;;;;3.58;2.60;;;;;;;;;;5034131;28;20036;-64
2023/04/10 13:02:39;;;;;;;3.42;2.47;;;;;;;;;;5034934;28;20029;-65
2023/04/10 13:05:06;;;;;;;4.07;2.47;;;;;;;;;;5021579;28;20029;-64
2023/04/10 13:07:31;;;;;;;2.47;2.10;;;;;;;;;;5015028;28;20046;-64
2023/04/10 13:09:58;;;;;;;2.50;2.05;;;;;;;;;;5034510;28;20191;-64
2023/04/10 13:12:24;;;;;;;2.55;1.80;;;;;;;;;;5033105;28;20029;-65
2023/04/10 13:14:52;;;;;;;2.78;2.10;;;;;;;;;;5033894;28;20091;-64
2023/04/10 13:17:18;;;;;;;3.20;2.30;;;;;;;;;;5033556;28;20029;-64
2023/04/10 13:19:44;;;;;;;3.35;2.30;;;;;;;;;;5033285;28;20043;-64
2023/04/10 13:22:09;;;;;;;4.53;2.20;;;;;;;;;;5032772;28;20029;-64
2023/04/10 13:24:35;;;;;;;2.75;2.30;;;;;;;;;;5033286;28;20034;-63
2023/04/10 13:27:01;;;;;;;3.72;2.58;;;;;;;;;;5033894;28;20132;-63
2023/04/10 13:29:27;;;;;;;3.03;2.10;;;;;;;;;;5034077;28;20128;-63
2023/04/10 13:31:53;;;;;;;4.70;2.33;;;;;;;;;;5035218;28;20033;-63
2023/04/10 13:34:18;;;;;;;3.30;2.42;;;;;;;;;;5034889;28;20673;-63
2023/04/10 13:36:44;;;;;;;3.72;2.38;;;;;;;;;;5032645;28;20041;-63
2023/04/10 13:39:09;;;;;;;2.50;1.95;;;;;;;;;;5014464;28;20053;-63
2023/04/10 13:41:35;;;;;;;3.08;2.30;;;;;;;;;;5021966;28;20030;-65
2023/04/10 13:44:01;;;;;;;2.97;2.30;;;;;;;;;;5031545;28;20041;-69
2023/04/10 13:46:27;;;;;;;2.97;2.17;;;;;;;;;;5029089;28;20065;-67
2023/04/10 13:48:52;;;;;;;3.40;2.28;;;;;;;;;;5029287;28;20053;-64
2023/04/10 13:51:17;;;;;;;6.78;2.33;;;;;;;;;;5020721;28;20238;-64
2023/04/10 13:53:43;;;;;;;3.55;2.30;;;;;;;;;;5013884;28;20034;-64
2023/04/10 13:56:08;;;;;;;5.15;2.40;;;;;;;;;;5030193;28;20033;-63
2023/04/10 13:58:34;;;;;;;4.03;2.45;;;;;;;;;;5033981;28;20432;-64
2023/04/10 14:01:00;;;;;;;3.50;2.05;;;;;;;;;;5033686;28;20087;-64
2023/04/10 14:03:26;;;;;;;4.18;2.40;;;;;;;;;;5033804;28;20045;-64
2023/04/10 14:05:52;;;;;;;3.20;2.50;;;;;;;;;;5033736;28;20071;-65
2023/04/10 14:08:17;;;;;;;3.42;2.40;;;;;;;;;;5032896;28;20044;-63
2023/04/10 14:10:45;;;;;;;2.92;2.35;;;;;;;;;;5033989;28;20073;-65
2023/04/10 14:13:10;;;;;;;3.63;2.33;;;;;;;;;;5032181;28;20121;-63
2023/04/10 14:15:36;;;;;;;3.95;2.55;;;;;;;;;;5033424;28;20108;-64
2023/04/10 14:18:02;;;;;;;3.83;2.50;;;;;;;;;;5033018;28;20026;-63
2023/04/10 14:20:27;;;;;;;7.28;2.22;;;;;;;;;;5048332;28;20472;-64
2023/04/10 14:22:52;;;;;;;3.55;2.50;;;;;;;;;;5033127;28;20026;-63
2023/04/10 14:25:18;;;;;;;4.28;2.60;;;;;;;;;;5032522;28;20031;-63
2023/04/10 14:27:44;;;;;;;4.05;2.58;;;;;;;;;;5027237;28;20038;-63
2023/04/10 14:30:10;;;;;;;3.67;2.63;;;;;;;;;;5020495;28;20052;-62
2023/04/10 14:32:35;;;;;;;4.13;2.67;;;;;;;;;;5033181;28;20033;-63
2023/04/10 14:35:01;;;;;;;4.20;2.60;;;;;;;;;;5026663;28;20442;-62
2023/04/10 14:37:26;;;;;;;3.70;2.58;;;;;;;;;;5030188;28;20029;-62